Time;durP1;ratioP1;P1;durP2;ratioP2;P2;SDS_P1;SDS_P2;PMS_P1;PMS_P2;Temp;Humidity;BMP_temperature;BMP_pressure;BME280_temperature;BME280_humidity;BME280_pressure;Samples;Min_cycle;Max_cycle;Signal;HPM_P1;HPM_P2
2024/02/15 00:02:22;;;;;;;21.05;14.50;;;9.50;93.10;;;;;;4992683;28;20050;-56
2024/02/15 00:04:48;;;;;;;21.15;14.32;;;9.40;93.30;;;;;;5006926;28;20031;-56
2024/02/15 00:07:14;;;;;;;17.95;14.15;;;9.40;93.60;;;;;;5006706;28;20078;-55
2024/02/15 00:09:40;;;;;;;20.40;14.02;;;9.20;93.90;;;;;;5011876;28;20030;-57
2024/02/15 00:12:06;;;;;;;14.60;11.57;;;9.20;94.20;;;;;;5012139;28;20030;-59
2024/02/15 00:14:32;;;;;;;17.60;11.77;;;9.20;94.00;;;;;;5026363;28;20042;-58
2024/02/15 00:16:57;;;;;;;15.40;11.00;;;9.20;93.80;;;;;;5012120;28;20032;-53
2024/02/15 00:19:23;;;;;;;16.15;11.85;;;9.00;93.50;;;;;;5012227;28;20034;-57
2024/02/15 00:21:49;;;;;;;14.57;10.75;;;8.90;93.90;;;;;;5012011;28;20719;-56
2024/02/15 00:24:15;;;;;;;12.68;10.32;;;8.80;93.80;;;;;;5012026;28;20029;-56
2024/02/15 00:26:42;;;;;;;12.18;9.98;;;8.70;93.80;;;;;;5026308;28;20117;-56
2024/02/15 00:29:08;;;;;;;13.13;9.32;;;8.80;93.70;;;;;;5012125;28;20038;-56
2024/02/15 00:31:35;;;;;;;12.27;8.98;;;8.80;93.50;;;;;;5026363;28;20081;-53
2024/02/15 00:34:02;;;;;;;13.02;9.68;;;8.80;93.60;;;;;;5011859;28;20432;-54
2024/02/15 00:36:29;;;;;;;12.75;9.80;;;8.70;93.40;;;;;;5012035;28;20061;-54
2024/02/15 00:38:55;;;;;;;13.50;10.18;;;8.80;93.40;;;;;;5011879;28;20509;-55
2024/02/15 00:41:21;;;;;;;14.05;10.63;;;8.90;93.40;;;;;;5011824;28;20030;-54
2024/02/15 00:43:47;;;;;;;19.23;12.32;;;8.80;93.30;;;;;;5011709;28;20034;-53
2024/02/15 00:46:14;;;;;;;15.95;11.13;;;8.80;93.40;;;;;;5011698;28;20766;-55
2024/02/15 00:48:40;;;;;;;14.18;10.30;;;8.70;93.30;;;;;;5011999;28;20449;-57
2024/02/15 00:51:06;;;;;;;15.93;10.73;;;8.60;93.50;;;;;;5011855;28;20083;-57
2024/02/15 00:53:32;;;;;;;16.15;10.88;;;8.70;93.40;;;;;;5011821;28;20113;-57
2024/02/15 00:55:58;;;;;;;13.82;9.82;;;8.70;93.30;;;;;;5011698;28;20410;-56
2024/02/15 00:58:26;;;;;;;12.70;9.13;;;8.70;93.20;;;;;;4995799;28;20117;-57
2024/02/15 01:00:52;;;;;;;16.80;10.45;;;8.70;93.10;;;;;;5015178;28;20029;-55
2024/02/15 01:03:17;;;;;;;14.52;10.73;;;8.70;93.10;;;;;;5015320;28;20030;-58
2024/02/15 01:05:43;;;;;;;14.25;10.68;;;8.70;93.20;;;;;;5015179;28;20061;-57
2024/02/15 01:08:09;;;;;;;12.93;9.82;;;8.70;93.20;;;;;;5014652;28;20050;-56
2024/02/15 01:10:36;;;;;;;15.00;11.15;;;8.70;93.20;;;;;;5029187;28;20112;-55
2024/02/15 01:13:02;;;;;;;20.50;13.68;;;8.70;93.30;;;;;;5014775;28;20042;-58
2024/02/15 01:15:28;;;;;;;44.95;28.30;;;8.70;93.30;;;;;;5015039;28;20030;-56
2024/02/15 01:17:54;;;;;;;23.27;14.52;;;8.50;93.50;;;;;;5014693;28;20030;-54
2024/02/15 01:20:21;;;;;;;17.60;11.60;;;;;;;;;;5012786;28;20133;-57
2024/02/15 01:22:46;;;;;;;15.38;11.65;;;7.80;97.40;;;;;;5014823;28;20135;-57
2024/02/15 01:25:15;;;;;;;18.15;11.73;;;;;;;;;;5014721;28;20470;-56
2024/02/15 01:27:41;;;;;;;15.25;11.80;;;;;;;;;;5014697;28;20100;-55
2024/02/15 01:30:08;;;;;;;17.67;12.63;;;;;;;;;;5012362;28;20045;-55
2024/02/15 01:32:34;;;;;;;17.13;13.23;;;7.20;97.10;;;;;;5014539;28;20049;-56
2024/02/15 01:35:00;;;;;;;17.10;12.05;;;7.40;97.30;;;;;;5014452;28;20160;-57
2024/02/15 01:37:25;;;;;;;18.50;13.48;;;7.50;96.80;;;;;;5011977;28;20078;-55
2024/02/15 01:39:52;;;;;;;16.67;12.38;;;;;;;;;;5012302;28;20041;-55
2024/02/15 01:42:18;;;;;;;18.88;12.50;;;;;;;;;;5011881;28;20169;-55
2024/02/15 01:44:45;;;;;;;23.13;17.23;;;;;;;;;;5012075;28;20033;-57
2024/02/15 01:47:14;;;;;;;24.60;17.52;;;;;;;;;;5011865;28;20501;-54
2024/02/15 01:49:41;;;;;;;23.85;18.17;;;;;;;;;;5012178;28;20033;-56
2024/02/15 01:52:08;;;;;;;20.02;14.20;;;;;;;;;;5011949;28;20033;-54
2024/02/15 01:54:35;;;;;;;19.60;14.27;;;;;;;;;;5011907;28;20033;-56
2024/02/15 01:57:02;;;;;;;21.42;15.38;;;;;;;;;;5011880;28;20555;-53
2024/02/15 01:59:29;;;;;;;24.65;15.85;;;;;;;;;;5012021;28;20388;-57
2024/02/15 02:01:55;;;;;;;22.98;17.42;;;;;;;;;;5011786;28;20042;-56
2024/02/15 02:04:22;;;;;;;23.77;17.30;;;;;;;;;;5011687;28;20053;-58
2024/02/15 02:06:48;;;;;;;28.25;18.15;;;;;;;;;;5011580;28;20553;-58
2024/02/15 02:09:14;;;;;;;24.25;16.83;;;;;;;;;;5012273;28;20058;-54
2024/02/15 02:11:41;;;;;;;26.70;18.35;;;;;;;;;;5013903;28;20026;-57
2024/02/15 02:14:08;;;;;;;29.83;21.05;;;;;;;;;;5013945;28;20045;-55
2024/02/15 02:16:39;;;;;;;24.92;16.63;;;;;;;;;;5013868;28;20030;-54
2024/02/15 02:19:09;;;;;;;25.90;17.27;;;;;;;;;;5013803;28;20038;-54
2024/02/15 02:21:35;;;;;;;21.45;15.00;;;;;;;;;;5013790;28;20053;-54
2024/02/15 02:24:07;;;;;;;20.30;13.52;;;;;;;;;;5013917;28;20069;-55
2024/02/15 02:26:34;;;;;;;18.20;12.85;;;;;;;;;;5013476;28;20025;-55
2024/02/15 02:29:04;;;;;;;18.55;12.82;;;;;;;;;;5013642;28;20044;-58
2024/02/15 02:31:37;;;;;;;16.70;11.90;;;;;;;;;;5013432;28;20080;-56
2024/02/15 02:34:03;;;;;;;26.10;13.07;;;;;;;;;;5013430;28;20029;-57
2024/02/15 02:36:30;;;;;;;17.65;12.82;;;;;;;;;;5013446;28;20030;-53
2024/02/15 02:39:00;;;;;;;18.08;13.30;;;;;;;;;;5013654;28;20075;-55
2024/02/15 02:41:28;;;;;;;20.23;13.43;;;7.00;95.70;;;;;;5013310;28;20069;-54
2024/02/15 02:43:55;;;;;;;22.95;15.25;;;;;;;;;;5013386;28;20041;-56
2024/02/15 02:46:21;;;;;;;22.30;14.93;;;;;;;;;;5013237;28;20026;-55
2024/02/15 02:48:47;;;;;;;19.83;13.85;;;;;;;;;;5011207;28;20053;-56
2024/02/15 02:51:13;;;;;;;19.00;13.27;;;;;;;;;;5012936;28;20033;-57
2024/02/15 02:53:39;;;;;;;21.73;13.80;;;4.50;99.90;;;;;;5013159;28;20034;-56
2024/02/15 02:56:05;;;;;;;20.00;13.77;;;4.20;99.90;;;;;;5013249;28;20040;-54
2024/02/15 02:58:31;;;;;;;15.57;11.30;;;4.20;99.90;;;;;;5011031;28;20167;-55
2024/02/15 03:01:00;;;;;;;14.60;10.95;;;4.20;99.90;;;;;;5027563;28;20117;-55
2024/02/15 03:03:26;;;;;;;14.23;10.55;;;4.30;99.90;;;;;;5012880;28;20045;-54
2024/02/15 03:05:51;;;;;;;13.73;9.43;;;4.30;99.90;;;;;;5012995;28;20030;-55
2024/02/15 03:08:17;;;;;;;12.57;9.63;;;4.40;99.90;;;;;;5012833;28;20057;-53
2024/02/15 03:10:43;;;;;;;12.60;9.27;;;4.60;99.90;;;;;;5012855;28;20025;-57
2024/02/15 03:13:09;;;;;;;13.30;9.25;;;4.50;99.90;;;;;;5012533;28;20042;-55
2024/02/15 03:15:35;;;;;;;11.10;9.38;;;4.60;99.90;;;;;;5012793;28;20026;-56
2024/02/15 03:18:06;;;;;;;11.98;9.05;;;4.80;99.90;;;;;;5010740;28;20057;-54
2024/02/15 03:20:33;;;;;;;14.27;10.00;;;5.10;99.90;;;;;;5010405;28;20050;-58
2024/02/15 03:23:02;;;;;;;17.52;11.73;;;5.30;99.90;;;;;;5012750;28;20266;-59
2024/02/15 03:25:29;;;;;;;12.65;9.52;;;5.70;99.90;;;;;;5012734;28;20037;-56
2024/02/15 03:27:56;;;;;;;18.27;10.50;;;5.90;99.90;;;;;;5012410;28;20034;-57
2024/02/15 03:30:26;;;;;;;15.40;11.07;;;;;;;;;;5012538;28;20417;-58
2024/02/15 03:32:53;;;;;;;24.38;13.18;;;6.40;99.90;;;;;;5012475;28;20145;-54
2024/02/15 03:35:20;;;;;;;19.63;13.02;;;6.30;99.90;;;;;;5012353;28;20044;-54
2024/02/15 03:37:46;;;;;;;18.73;12.13;;;6.30;99.90;;;;;;5025951;28;20119;-57
2024/02/15 03:40:11;;;;;;;18.95;12.82;;;6.30;99.90;;;;;;5012137;28;20525;-58
2024/02/15 03:42:37;;;;;;;17.75;11.43;;;6.40;99.90;;;;;;5012375;28;20112;-57
2024/02/15 03:45:06;;;;;;;22.13;12.38;;;6.50;99.90;;;;;;5012474;28;20108;-56
2024/02/15 03:47:35;;;;;;;18.10;12.23;;;6.60;99.70;;;;;;5010372;28;20050;-54
2024/02/15 03:50:11;;;;;;;16.73;11.43;;;6.60;99.30;;;;;;5026588;28;20049;-58
2024/02/15 03:52:38;;;;;;;13.43;10.18;;;6.30;99.90;;;;;;5012281;28;20053;-54
2024/02/15 03:55:05;;;;;;;16.90;11.38;;;6.00;99.90;;;;;;5012414;28;20053;-54
2024/02/15 03:57:31;;;;;;;16.08;10.80;;;6.10;99.90;;;;;;5026665;28;20064;-54
2024/02/15 03:59:57;;;;;;;19.42;11.00;;;6.00;99.90;;;;;;5012244;28;20069;-55
2024/02/15 04:02:30;;;;;;;16.35;11.75;;;6.00;99.90;;;;;;5012297;28;20030;-53
2024/02/15 04:04:56;;;;;;;13.85;10.15;;;6.30;99.90;;;;;;5012072;28;20049;-57
2024/02/15 04:07:26;;;;;;;14.73;10.90;;;6.00;99.90;;;;;;5011914;28;20081;-59
2024/02/15 04:09:52;;;;;;;12.38;9.23;;;5.80;99.90;;;;;;5012203;28;20109;-54
2024/02/15 04:12:18;;;;;;;12.63;9.73;;;5.70;99.90;;;;;;5012198;28;20120;-55
2024/02/15 04:14:48;;;;;;;12.82;9.48;;;5.70;99.90;;;;;;5012228;28;20601;-55
2024/02/15 04:17:16;;;;;;;12.60;9.85;;;5.80;99.90;;;;;;5012178;28;20042;-55
2024/02/15 04:19:46;;;;;;;11.98;9.18;;;5.80;99.90;;;;;;5011977;28;20038;-53
2024/02/15 04:22:12;;;;;;;16.85;9.85;;;6.00;99.90;;;;;;5026262;28;20050;-54
2024/02/15 04:24:41;;;;;;;11.95;8.55;;;5.80;99.90;;;;;;5010006;28;20076;-54
2024/02/15 04:27:08;;;;;;;11.18;8.57;;;5.80;99.90;;;;;;5012060;28;20041;-56
2024/02/15 04:29:34;;;;;;;12.52;9.23;;;6.10;99.90;;;;;;5011924;28;20034;-58
2024/02/15 04:32:00;;;;;;;16.17;10.05;;;6.00;99.90;;;;;;5010591;28;20056;-57
2024/02/15 04:34:26;;;;;;;12.98;10.07;;;6.20;99.90;;;;;;5015818;28;20067;-57
2024/02/15 04:36:55;;;;;;;13.52;10.48;;;6.50;99.90;;;;;;5015515;28;20041;-57
2024/02/15 04:39:26;;;;;;;12.52;9.32;;;6.20;99.90;;;;;;5015670;28;20497;-56
2024/02/15 04:41:53;;;;;;;11.95;9.35;;;6.00;99.90;;;;;;5015611;28;20492;-56
2024/02/15 04:44:22;;;;;;;9.13;7.75;;;5.90;99.90;;;;;;5015533;28;20030;-54
2024/02/15 04:46:49;;;;;;;11.73;8.23;;;6.10;99.90;;;;;;5029885;28;20064;-55
2024/02/15 04:49:15;;;;;;;11.98;8.18;;;5.70;99.90;;;;;;5015657;28;20034;-56
2024/02/15 04:51:41;;;;;;;13.15;8.15;;;5.20;99.90;;;;;;5015319;28;20462;-54
2024/02/15 04:54:08;;;;;;;13.48;8.75;;;;;;;;;;5029853;28;20104;-58
2024/02/15 04:56:36;;;;;;;12.27;8.52;;;4.80;99.90;;;;;;5015255;28;20060;-57
2024/02/15 04:59:02;;;;;;;9.32;7.20;;;4.30;99.90;;;;;;5013969;28;20440;-55
2024/02/15 05:01:29;;;;;;;9.48;5.90;;;4.00;99.90;;;;;;5029784;28;20375;-56
2024/02/15 05:03:55;;;;;;;10.85;7.40;;;;;;;;;;5015351;28;20056;-56
2024/02/15 05:06:21;;;;;;;8.52;6.20;;;3.80;99.90;;;;;;5015029;28;20437;-58
2024/02/15 05:08:47;;;;;;;8.25;5.72;;;3.50;99.90;;;;;;5015069;28;20112;-54
2024/02/15 05:11:21;;;;;;;11.65;7.75;;;;;;;;;;5014655;28;20034;-57
2024/02/15 05:13:47;;;;;;;11.68;8.10;;;3.40;99.90;;;;;;5015110;28;20091;-54
2024/02/15 05:16:13;;;;;;;13.63;10.60;;;3.60;99.90;;;;;;5014471;28;20485;-59
2024/02/15 05:18:40;;;;;;;15.45;11.07;;;3.20;99.90;;;;;;5015160;28;20030;-56
2024/02/15 05:21:09;;;;;;;12.10;8.85;;;;;;;;;;5013983;28;20384;-55
2024/02/15 05:23:39;;;;;;;14.20;9.52;;;3.00;99.90;;;;;;5014415;28;20093;-53
2024/02/15 05:26:06;;;;;;;10.13;7.72;;;3.40;99.90;;;;;;5014132;28;20048;-55
2024/02/15 05:28:32;;;;;;;12.70;7.75;;;3.10;99.90;;;;;;5014023;28;22031;-53
2024/02/15 05:31:17;;;;;;;9.77;7.25;;;3.00;99.90;;;;;;5013446;28;20503;-58
2024/02/15 05:33:44;;;;;;;10.02;6.90;;;3.00;99.90;;;;;;4997440;28;20422;-52
2024/02/15 05:36:14;;;;;;;11.10;7.10;;;3.00;99.90;;;;;;5014351;28;20052;-57
2024/02/15 05:38:40;;;;;;;13.43;7.57;;;3.30;99.90;;;;;;5014619;28;20029;-57
2024/02/15 05:41:07;;;;;;;26.00;13.25;;;3.30;99.90;;;;;;5014204;28;20026;-57
2024/02/15 05:43:36;;;;;;;47.28;21.65;;;3.40;99.90;;;;;;5012314;28;20080;-57
2024/02/15 05:46:03;;;;;;;32.67;17.30;;;3.40;99.90;;;;;;5013210;28;20112;-58
2024/02/15 05:48:28;;;;;;;10.73;8.25;;;3.60;99.90;;;;;;5012820;28;20041;-56
2024/02/15 05:50:59;;;;;;;13.35;7.57;;;3.70;99.90;;;;;;5027540;28;20064;-56
2024/02/15 05:53:25;;;;;;;13.45;8.93;;;3.80;99.90;;;;;;5013611;28;20474;-56
2024/02/15 05:55:51;;;;;;;17.00;10.70;;;3.90;99.90;;;;;;5012697;28;20037;-55
2024/02/15 05:58:16;;;;;;;17.13;11.48;;;3.90;99.90;;;;;;5012895;28;20076;-57
2024/02/15 06:00:44;;;;;;;14.65;10.00;;;4.10;99.90;;;;;;5013072;28;20064;-55
2024/02/15 06:03:13;;;;;;;15.88;10.15;;;4.30;99.90;;;;;;5011760;28;20041;-52
2024/02/15 06:05:39;;;;;;;12.73;9.77;;;4.40;99.90;;;;;;5011801;28;20087;-54
2024/02/15 06:08:05;;;;;;;11.48;8.55;;;4.60;99.90;;;;;;5012923;28;20568;-56
2024/02/15 06:10:31;;;;;;;10.50;8.40;;;4.90;99.90;;;;;;5010262;28;20485;-55
2024/02/15 06:13:00;;;;;;;10.80;7.75;;;4.70;99.90;;;;;;5011531;28;20033;-55
2024/02/15 06:15:26;;;;;;;11.95;7.70;;;4.50;99.90;;;;;;5013275;28;20029;-54
2024/02/15 06:17:52;;;;;;;12.88;7.82;;;4.80;99.90;;;;;;5013319;28;20103;-55
2024/02/15 06:20:19;;;;;;;10.02;7.32;;;5.20;99.90;;;;;;5013666;28;20037;-56
2024/02/15 06:22:46;;;;;;;8.80;5.75;;;5.30;99.90;;;;;;5013256;28;20038;-54
2024/02/15 06:25:13;;;;;;;10.60;7.00;;;5.60;99.90;;;;;;5013585;28;20030;-58
2024/02/15 06:27:42;;;;;;;10.18;7.53;;;5.30;99.90;;;;;;5012748;28;20041;-58
2024/02/15 06:41:09;;;;;;;17.25;11.85;;;5.80;99.90;;;;;;5010816;28;20148;-53
2024/02/15 06:43:35;;;;;;;16.88;11.95;;;6.00;99.90;;;;;;5012880;28;20084;-55
2024/02/15 06:46:02;;;;;;;14.45;11.20;;;5.90;99.90;;;;;;5010625;28;20034;-57
2024/02/15 06:48:28;;;;;;;41.22;22.50;;;;;;;;;;5012611;28;20091;-59
2024/02/15 06:50:55;;;;;;;16.20;11.27;;;;;;;;;;5012639;28;20034;-59
2024/02/15 06:53:20;;;;;;;14.50;11.05;;;6.20;99.90;;;;;;5012445;28;20485;-55
2024/02/15 06:55:50;;;;;;;13.18;9.88;;;6.20;99.90;;;;;;5011939;28;20037;-55
2024/02/15 06:58:16;;;;;;;11.48;9.27;;;6.10;99.90;;;;;;5012740;28;20026;-58
2024/02/15 07:00:43;;;;;;;10.98;8.75;;;5.90;99.90;;;;;;5011959;28;20034;-56
2024/02/15 07:03:10;;;;;;;11.23;9.15;;;5.90;99.90;;;;;;5012531;28;20029;-54
2024/02/15 07:05:41;;;;;;;10.65;7.47;;;6.10;99.90;;;;;;5012447;28;20033;-57
2024/02/15 07:08:10;;;;;;;11.40;8.05;;;6.10;99.90;;;;;;5009922;28;20517;-59
2024/02/15 07:10:38;;;;;;;8.80;7.25;;;6.10;99.90;;;;;;5010934;28;20034;-53
2024/02/15 07:13:05;;;;;;;15.35;8.07;;;6.10;99.90;;;;;;5010195;28;20084;-55
2024/02/15 07:15:33;;;;;;;10.30;7.93;;;6.00;99.90;;;;;;5012243;28;20033;-55
2024/02/15 07:17:59;;;;;;;9.55;7.22;;;5.70;99.90;;;;;;5012105;28;20131;-58
2024/02/15 07:20:25;;;;;;;8.43;6.25;;;5.50;99.90;;;;;;5026575;28;20033;-58
2024/02/15 07:22:51;;;;;;;10.10;6.95;;;5.40;99.90;;;;;;5008009;28;20397;-59
2024/02/15 07:25:18;;;;;;;6.68;4.03;;;;;;;;;;5009797;28;20029;-57
2024/02/15 07:27:44;;;;;;;9.88;6.90;;;5.70;99.90;;;;;;5010328;28;20048;-57
2024/02/15 07:30:10;;;;;;;11.73;9.00;;;5.70;99.90;;;;;;5009336;28;20030;-54
2024/02/15 07:32:36;;;;;;;16.05;11.20;;;6.10;99.90;;;;;;5017984;28;20042;-52
2024/02/15 07:35:02;;;;;;;30.60;21.58;;;;;;;;;;5001298;28;20030;-55
2024/02/15 07:37:29;;;;;;;27.42;17.60;;;;;;;;;;5003208;28;20385;-54
2024/02/15 07:39:55;;;;;;;20.70;14.65;;;6.50;99.90;;;;;;5004847;28;20026;-55
2024/02/15 07:42:25;;;;;;;29.42;15.77;;;;;;;;;;5012553;28;20033;-57
2024/02/15 07:44:52;;;;;;;30.48;17.55;;;7.10;99.90;;;;;;5010507;28;20073;-57
2024/02/15 07:47:20;;;;;;;29.10;17.75;;;7.30;99.90;;;;;;5012377;28;20408;-54
2024/02/15 07:49:47;;;;;;;38.92;20.45;;;;;;;;;;5012679;28;20038;-54
2024/02/15 07:52:13;;;;;;;50.05;27.80;;;;;;;;;;5012273;28;20030;-54
2024/02/15 07:54:39;;;;;;;43.10;25.60;;;8.00;99.90;;;;;;5012072;28;20038;-54
2024/02/15 07:57:05;;;;;;;46.45;25.88;;;8.20;99.90;;;;;;5012647;28;20022;-55
2024/02/15 07:59:30;;;;;;;39.40;23.92;;;8.40;99.90;;;;;;5012295;28;20033;-55
2024/02/15 08:01:57;;;;;;;32.55;18.98;;;8.60;99.90;;;;;;5009790;28;20125;-56
2024/02/15 08:04:24;;;;;;;23.42;16.08;;;8.70;99.90;;;;;;5011882;28;20037;-54
2024/02/15 08:06:53;;;;;;;23.00;16.00;;;;;;;;;;5014493;28;20041;-55
2024/02/15 08:09:21;;;;;;;21.75;15.57;;;;;;;;;;5013956;28;20046;-56
2024/02/15 08:11:48;;;;;;;25.85;15.43;;;;;;;;;;5015942;28;20478;-54
2024/02/15 08:14:14;;;;;;;22.42;15.50;;;9.40;99.90;;;;;;5016215;28;20036;-54
2024/02/15 08:16:40;;;;;;;21.02;15.20;;;9.40;99.90;;;;;;5015725;28;20401;-55
2024/02/15 08:19:07;;;;;;;21.08;14.50;;;;;;;;;;5014054;28;20498;-53
2024/02/15 08:21:35;;;;;;;23.38;17.13;;;9.90;99.90;;;;;;5030601;28;20042;-54
2024/02/15 08:24:05;;;;;;;28.98;20.00;;;10.10;99.90;;;;;;5015928;28;20030;-56
2024/02/15 08:26:43;;;;;;;26.85;20.50;;;10.20;99.90;;;;;;5016028;28;20101;-55
2024/02/15 08:29:10;;;;;;;26.08;17.77;;;;;;;;;;5016151;28;20037;-56
2024/02/15 08:31:35;;;;;;;25.30;18.02;;;10.50;99.90;;;;;;5030408;28;20045;-55
2024/02/15 08:34:09;;;;;;;27.67;17.70;;;10.70;99.60;;;;;;5015836;28;20030;-55
2024/02/15 08:36:36;;;;;;;26.02;18.65;;;10.70;99.50;;;;;;5015801;28;20041;-56
2024/02/15 08:39:03;;;;;;;32.00;21.40;;;;;;;;;;5015394;28;20022;-57
2024/02/15 08:41:29;;;;;;;31.67;21.15;;;11.20;98.20;;;;;;5015672;28;20404;-54
2024/02/15 08:44:00;;;;;;;43.90;29.83;;;11.30;98.10;;;;;;5014977;28;20022;-55
2024/02/15 08:46:27;;;;;;;82.22;47.67;;;11.40;98.00;;;;;;4995978;28;20053;-56
2024/02/15 08:48:52;;;;;;;91.82;55.40;;;11.40;98.00;;;;;;4995864;28;20394;-55
2024/02/15 08:51:20;;;;;;;126.53;73.78;;;11.60;98.00;;;;;;4995917;28;20030;-56
2024/02/15 08:53:47;;;;;;;104.50;66.60;;;;;;;;;;4996058;28;20030;-57
2024/02/15 08:56:13;;;;;;;96.45;58.50;;;;;;;;;;4995729;28;20035;-54
2024/02/15 08:58:40;;;;;;;65.85;39.30;;;;;;;;;;5010345;28;20025;-54
2024/02/15 09:01:08;;;;;;;45.70;29.48;;;12.30;98.10;;;;;;5014866;28;20534;-54
2024/02/15 09:03:33;;;;;;;51.90;32.20;;;12.40;98.30;;;;;;5029498;28;20045;-55
2024/02/15 09:06:02;;;;;;;53.40;33.33;;;12.70;98.00;;;;;;5014002;28;20033;-53
2024/02/15 09:08:30;;;;;;;54.55;31.65;;;;;;;;;;5013890;28;20053;-52
2024/02/15 09:10:57;;;;;;;32.80;21.38;;;13.20;99.90;;;;;;5014137;28;20091;-53
2024/02/15 09:13:24;;;;;;;40.13;19.60;;;;;;;;;;5014113;28;20108;-58
2024/02/15 09:15:50;;;;;;;33.65;21.52;;;;;;;;;;5014083;28;20034;-53
2024/02/15 09:18:22;;;;;;;24.83;18.45;;;;;;;;;;5011134;28;20125;-55
2024/02/15 09:20:48;;;;;;;32.20;22.15;;;13.40;99.90;;;;;;5013993;28;20029;-56
2024/02/15 09:23:14;;;;;;;46.53;27.30;;;13.50;99.90;;;;;;5011757;28;20050;-54
2024/02/15 09:25:44;;;;;;;30.77;24.48;;;13.70;99.90;;;;;;5013904;28;20033;-56
2024/02/15 09:28:10;;;;;;;33.03;22.38;;;;;;;;;;5028098;28;20046;-53
2024/02/15 09:30:37;;;;;;;70.43;42.40;;;;;;;;;;5013810;28;20022;-54
2024/02/15 09:33:04;;;;;;;35.40;25.90;;;;;;;;;;5012936;28;20034;-55
2024/02/15 09:35:31;;;;;;;35.67;23.75;;;;;;;;;;5013719;28;20037;-55
2024/02/15 09:37:57;;;;;;;27.05;18.35;;;;;;;;;;5013711;28;20038;-57
2024/02/15 09:40:29;;;;;;;29.25;20.73;;;;;;;;;;5013577;28;20493;-54
2024/02/15 09:42:55;;;;;;;22.88;15.52;;;;;;;;;;5013617;28;20044;-54
2024/02/15 09:45:24;;;;;;;23.02;16.73;;;;;;;;;;5013196;28;20048;-54
2024/02/15 09:47:52;;;;;;;20.67;14.23;;;;;;;;;;5013348;28;20493;-55
2024/02/15 09:50:19;;;;;;;22.55;16.73;;;;;;;;;;5011170;28;20057;-57
2024/02/15 09:52:45;;;;;;;27.70;21.77;;;;;;;;;;5010350;28;20037;-54
2024/02/15 09:55:15;;;;;;;28.08;19.05;;;;;;;;;;5026947;28;20567;-55
2024/02/15 09:57:48;;;;;;;17.20;12.88;;;13.30;91.80;;;;;;5012613;28;20045;-59
2024/02/15 10:00:16;;;;;;;21.70;14.10;;;13.60;92.00;;;;;;5012034;28;20061;-55
2024/02/15 10:02:44;;;;;;;20.63;14.18;;;13.90;93.50;;;;;;5011433;28;20030;-58
2024/02/15 10:05:13;;;;;;;20.48;13.52;;;14.10;97.10;;;;;;5026233;28;20045;-56
2024/02/15 10:07:44;;;;;;;23.13;15.27;;;14.20;91.50;;;;;;5012310;28;20564;-61
2024/02/15 10:10:23;;;;;;;19.63;11.35;;;14.10;91.20;;;;;;5011933;28;20042;-55
2024/02/15 10:12:51;;;;;;;12.85;9.40;;;14.10;99.90;;;;;;5012255;28;20041;-57
2024/02/15 10:15:40;;;;;;;16.45;10.25;;;13.90;99.90;;;;;;5012411;28;20091;-55
2024/02/15 10:18:10;;;;;;;21.23;14.35;;;14.20;99.90;;;;;;5004750;28;20034;-61
2024/02/15 10:20:40;;;;;;;13.90;10.35;;;14.20;91.00;;;;;;4992850;28;20085;-55
2024/02/15 10:23:17;;;;;;;15.20;10.73;;;14.50;90.40;;;;;;5002222;28;20046;-59
2024/02/15 10:25:43;;;;;;;19.33;9.73;;;14.60;90.30;;;;;;5021545;28;20125;-69
2024/02/15 10:28:15;;;;;;;13.27;10.98;;;14.80;90.00;;;;;;5018865;28;20049;-60
2024/02/15 10:30:45;;;;;;;;;;;;;;;;;;5009589;28;20877;-56
2024/02/15 10:33:19;;;;;;;10.27;7.95;;;;;;;;;;5007658;28;19909;-55
2024/02/15 10:35:46;;;;;;;9.98;6.85;;;;;;;;;;5001902;28;20077;-61
2024/02/15 10:38:13;;;;;;;9.07;6.45;;;;;;;;;;5011690;28;20033;-64
2024/02/15 10:40:43;;;;;;;13.90;8.27;;;16.30;86.80;;;;;;5003069;28;20038;-60
2024/02/15 10:43:13;;;;;;;12.05;7.97;;;16.20;86.80;;;;;;5002198;28;20030;-55
2024/02/15 10:45:42;;;;;;;11.23;7.03;;;15.80;85.90;;;;;;5004976;28;20037;-61
2024/02/15 10:48:12;;;;;;;10.45;7.25;;;16.10;87.50;;;;;;5004621;28;20061;-57
2024/02/15 10:50:46;;;;;;;9.52;6.18;;;;;;;;;;4993485;28;20042;-56
2024/02/15 10:53:22;;;;;;;7.20;5.50;;;;;;;;;;4993691;28;20085;-57
2024/02/15 10:55:54;;;;;;;8.40;5.70;;;;;;;;;;4992819;28;20034;-57
2024/02/15 10:58:22;;;;;;;8.35;5.50;;;16.40;90.40;;;;;;4998371;28;20029;-57
2024/02/15 11:00:50;;;;;;;5.63;4.65;;;16.20;91.20;;;;;;5013256;28;20053;-58
2024/02/15 11:03:27;;;;;;;12.10;5.72;;;16.30;97.20;;;;;;5013053;28;20068;-56
2024/02/15 11:05:57;;;;;;;9.25;5.65;;;16.70;85.60;;;;;;5012959;28;20128;-58
2024/02/15 11:08:23;;;;;;;8.23;6.45;;;;;;;;;;5012701;28;20115;-57
2024/02/15 11:10:50;;;;;;;7.65;4.82;;;;;;;;;;5012974;28;20477;-57
2024/02/15 11:13:16;;;;;;;6.43;5.10;;;;;;;;;;5012865;28;20029;-57
2024/02/15 11:15:53;;;;;;;9.80;5.20;;;;;;;;;;5012874;28;20041;-57
2024/02/15 11:18:51;;;;;;;7.53;5.35;;;19.30;81.10;;;;;;5012982;28;20026;-55
2024/02/15 11:21:20;;;;;;;8.80;5.25;;;19.70;91.50;;;;;;5012727;28;20030;-57
2024/02/15 11:23:46;;;;;;;9.15;6.20;;;;;;;;;;5012635;28;20029;-55
2024/02/15 11:26:31;;;;;;;8.40;5.10;;;;;;;;;;5012748;28;20069;-56
2024/02/15 11:28:57;;;;;;;8.20;4.80;;;;;;;;;;5027034;28;20049;-55
2024/02/15 11:31:42;;;;;;;7.60;4.63;;;;;;;;;;5010627;28;20041;-55
2024/02/15 11:34:43;;;;;;;6.95;4.65;;;19.80;99.90;;;;;;5012646;28;20040;-56
2024/02/15 11:37:09;;;;;;;9.15;4.78;;;;;;;;;;5012536;28;20034;-57
2024/02/15 11:39:44;;;;;;;6.72;4.55;;;;;;;;;;5012617;28;20116;-53
2024/02/15 11:42:30;;;;;;;7.35;4.30;;;22.30;75.10;;;;;;5012315;28;20080;-58
2024/02/15 11:45:07;;;;;;;5.38;4.30;;;21.90;74.70;;;;;;5012419;28;20084;-57
2024/02/15 11:47:39;;;;;;;6.72;4.72;;;22.80;74.80;;;;;;5012306;28;20061;-54
2024/02/15 11:50:12;;;;;;;5.60;3.97;;;23.30;74.00;;;;;;5012400;28;20521;-56
2024/02/15 11:52:40;;;;;;;6.35;3.58;;;22.20;72.50;;;;;;5012547;28;20033;-57
2024/02/15 11:55:10;;;;;;;4.82;3.20;;;21.80;73.00;;;;;;5012324;28;20381;-55
2024/02/15 11:58:05;;;;;;;7.53;2.33;;;21.30;73.20;;;;;;5010430;28;20046;-56
2024/02/15 12:19:57;;;;;;;7.65;4.55;;;;;;;;;;4992603;28;20045;-55
2024/02/15 12:22:35;;;;;;;6.07;3.53;;;;;;;;;;4992498;28;20474;-56
2024/02/15 12:25:11;;;;;;;8.20;3.58;;;;;;;;;;4992378;28;20030;-54
2024/02/15 12:27:43;;;;;;;7.80;4.30;;;;;;;;;;4992344;28;20509;-58
2024/02/15 12:30:20;;;;;;;6.18;4.10;;;;;;;;;;5006734;28;20034;-58
2024/02/15 12:32:47;;;;;;;6.82;3.55;;;23.40;97.50;;;;;;4992534;28;20080;-53
2024/02/15 12:35:23;;;;;;;8.52;3.70;;;22.40;70.60;;;;;;4992271;28;20462;-59
2024/02/15 12:38:05;;;;;;;9.77;4.22;;;;;;;;;;4992340;28;20029;-56
2024/02/15 12:40:38;;;;;;;9.43;3.40;;;;;;;;;;4992508;28;20041;-56
2024/02/15 12:43:08;;;;;;;5.70;3.38;;;;;;;;;;4995882;28;20050;-57
2024/02/15 12:45:38;;;;;;;10.98;4.80;;;;;;;;;;5011087;28;20041;-54
2024/02/15 12:48:06;;;;;;;25.13;5.82;;;21.00;72.10;;;;;;5011083;28;20493;-56
2024/02/15 12:50:32;;;;;;;6.68;3.97;;;21.00;72.30;;;;;;5011085;28;20036;-58
2024/02/15 12:53:05;;;;;;;5.32;3.67;;;21.30;72.20;;;;;;5011821;28;20040;-58
2024/02/15 12:55:36;;;;;;;7.10;3.40;;;21.30;72.00;;;;;;5015566;28;20116;-56
2024/02/15 12:58:09;;;;;;;8.00;3.10;;;21.10;72.40;;;;;;5015635;28;20040;-57
2024/02/15 13:00:38;;;;;;;7.82;3.38;;;20.60;72.20;;;;;;5015339;28;20105;-59
2024/02/15 13:03:08;;;;;;;8.88;4.28;;;21.20;72.60;;;;;;5015358;28;20030;-59
2024/02/15 13:05:36;;;;;;;5.20;3.33;;;21.00;73.00;;;;;;5015064;28;20030;-56
2024/02/15 13:08:02;;;;;;;4.10;2.60;;;20.70;73.10;;;;;;5014916;28;20061;-55
2024/02/15 13:10:29;;;;;;;4.70;2.20;;;20.90;72.60;;;;;;5012721;28;20045;-55
2024/02/15 13:12:56;;;;;;;5.13;2.65;;;20.90;71.90;;;;;;4996153;28;20120;-55
2024/02/15 13:15:27;;;;;;;5.43;2.75;;;20.60;72.30;;;;;;5012227;28;20439;-56
2024/02/15 13:17:54;;;;;;;8.63;3.97;;;20.80;72.20;;;;;;5015038;28;20045;-57
2024/02/15 13:20:30;;;;;;;3.55;2.10;;;;;;;;;;5013661;28;20619;-54
2024/02/15 13:23:00;;;;;;;4.65;2.65;;;;;;;;;;5015034;28;20033;-56
2024/02/15 13:25:26;;;;;;;9.77;2.72;;;;;;;;;;5013407;28;20054;-54
2024/02/15 13:27:52;;;;;;;5.47;2.42;;;;;;;;;;5014648;28;20121;-57
2024/02/15 13:30:21;;;;;;;9.88;4.80;;;20.90;91.90;;;;;;5013310;28;20044;-56
2024/02/15 13:32:50;;;;;;;6.43;2.50;;;20.80;77.40;;;;;;5013920;28;20474;-56
2024/02/15 13:35:20;;;;;;;6.75;2.42;;;20.50;90.80;;;;;;5014669;28;20080;-58
2024/02/15 13:37:49;;;;;;;4.38;2.20;;;;;;;;;;5014682;28;20045;-54
2024/02/15 13:40:15;;;;;;;3.88;2.15;;;19.50;83.50;;;;;;5014894;28;20022;-54
2024/02/15 13:42:46;;;;;;;5.75;1.98;;;;;;;;;;5013916;28;20452;-56
2024/02/15 13:45:13;;;;;;;5.22;2.35;;;;;;;;;;5014668;28;20350;-59
2024/02/15 13:47:39;;;;;;;4.57;2.33;;;;;;;;;;5014366;28;20136;-60
2024/02/15 13:50:07;;;;;;;13.10;3.15;;;;;;;;;;5014526;28;20036;-56